createdAt,value
2022-11-23T00:00:34.242Z,6.00
2022-11-23T00:03:02.622Z,6.00
2022-11-23T00:05:32.747Z,5.90
2022-11-23T00:08:02.784Z,6.00
2022-11-23T00:10:31.447Z,6.00
2022-11-23T00:13:01.146Z,6.10
2022-11-23T00:15:29.805Z,6.00
2022-11-23T00:18:00.282Z,6.00
2022-11-23T00:20:32.315Z,6.10
2022-11-23T00:23:00.500Z,6.10
2022-11-23T00:25:29.957Z,6.10
2022-11-23T00:27:59.328Z,6.00
2022-11-23T00:30:28.983Z,6.00
2022-11-23T00:32:59.519Z,5.90
2022-11-23T00:35:29.333Z,5.80
2022-11-23T00:37:59.255Z,5.80
2022-11-23T00:40:28.357Z,5.80
2022-11-23T00:42:56.670Z,5.70
2022-11-23T00:45:25.407Z,5.70
2022-11-23T00:47:55.186Z,5.70
2022-11-23T00:50:24.304Z,5.60
2022-11-23T00:52:52.648Z,5.60
2022-11-23T00:55:22.229Z,5.60
2022-11-23T00:57:50.404Z,5.60
2022-11-23T01:00:19.767Z,5.70
2022-11-23T01:02:48.090Z,5.80
2022-11-23T01:05:18.005Z,5.80
2022-11-23T01:07:46.898Z,5.80
2022-11-23T01:10:18.387Z,5.80
2022-11-23T01:12:48.342Z,5.80
2022-11-23T01:15:17.825Z,5.70
2022-11-23T01:17:46.227Z,5.80
2022-11-23T01:20:14.614Z,5.70
2022-11-23T01:22:43.593Z,5.70
2022-11-23T01:25:12.032Z,5.60
2022-11-23T01:27:42.381Z,5.60
2022-11-23T01:30:15.739Z,5.50
2022-11-23T01:32:45.765Z,5.60
2022-11-23T01:35:14.367Z,5.70
2022-11-23T01:37:43.248Z,5.60
2022-11-23T01:40:12.594Z,5.60
2022-11-23T01:42:53.914Z,5.50
2022-11-23T01:45:39.830Z,5.50
2022-11-23T01:48:14.490Z,5.50
2022-11-23T01:50:44.367Z,5.50
2022-11-23T01:53:12.909Z,5.50
2022-11-23T01:55:45.015Z,5.60
2022-11-23T01:58:16.015Z,5.60
2022-11-23T02:00:47.194Z,5.60
2022-11-23T02:03:16.441Z,5.60
2022-11-23T02:05:48.559Z,5.60
2022-11-23T02:08:18.239Z,5.50
2022-11-23T02:10:48.927Z,5.50
2022-11-23T02:13:17.377Z,5.60
2022-11-23T02:15:47.194Z,5.60
2022-11-23T02:18:17.983Z,5.50
2022-11-23T02:20:47.221Z,5.50
2022-11-23T02:23:25.970Z,5.50
2022-11-23T02:26:00.890Z,5.50
2022-11-23T02:28:32.827Z,5.50
2022-11-23T02:31:01.740Z,5.50
2022-11-23T02:33:31.309Z,5.60
2022-11-23T02:36:29.608Z,5.60
2022-11-23T02:39:02.427Z,5.60
2022-11-23T02:41:38.401Z,5.60
2022-11-23T02:44:15.440Z,5.70
2022-11-23T02:46:43.967Z,5.60
2022-11-23T02:49:12.248Z,5.60
2022-11-23T02:51:40.438Z,5.60
2022-11-23T02:54:08.730Z,5.60
2022-11-23T02:56:39.131Z,5.60
2022-11-23T02:59:07.464Z,5.60
2022-11-23T03:01:35.719Z,5.60
2022-11-23T03:04:04.552Z,5.70
2022-11-23T03:06:33.636Z,5.70
2022-11-23T03:09:02.518Z,5.70
2022-11-23T03:11:30.830Z,5.70
2022-11-23T03:14:02.827Z,5.70
2022-11-23T03:16:31.249Z,5.60
2022-11-23T03:19:00.928Z,5.60
2022-11-23T03:21:29.577Z,5.60
2022-11-23T03:23:58.209Z,5.60
2022-11-23T03:26:28.153Z,5.60
2022-11-23T03:28:57.239Z,5.50
2022-11-23T03:31:33.894Z,5.50
2022-11-23T03:34:02.198Z,5.50
2022-11-23T03:36:30.523Z,5.50
2022-11-23T03:39:02.341Z,5.50
2022-11-23T03:41:32.387Z,5.50
2022-11-23T03:44:01.251Z,5.50
2022-11-23T03:46:31.111Z,5.40
2022-11-23T03:49:01.156Z,5.40
2022-11-23T03:51:30.285Z,5.40
2022-11-23T03:54:01.503Z,5.40
2022-11-23T03:56:31.424Z,5.40
2022-11-23T03:59:00.288Z,5.40
2022-11-23T04:01:29.265Z,5.50
2022-11-23T04:03:57.478Z,5.50
2022-11-23T04:06:28.328Z,5.50
2022-11-23T04:09:01.816Z,5.60
2022-11-23T04:11:31.829Z,5.50
2022-11-23T04:14:00.086Z,5.60
2022-11-23T04:16:29.237Z,5.60
2022-11-23T04:18:57.754Z,5.60
2022-11-23T04:21:27.753Z,5.60
2022-11-23T04:23:58.263Z,5.50
2022-11-23T04:26:27.301Z,5.50
2022-11-23T04:28:55.876Z,5.60
2022-11-23T04:31:24.470Z,5.60
2022-11-23T04:33:53.000Z,5.60
2022-11-23T04:36:21.825Z,5.60
2022-11-23T04:38:53.705Z,5.70
2022-11-23T04:41:22.135Z,5.80
2022-11-23T04:43:52.874Z,5.80
2022-11-23T04:46:21.340Z,5.90
2022-11-23T04:48:51.124Z,5.90
2022-11-23T04:51:21.514Z,5.90
2022-11-23T04:53:50.030Z,5.90
2022-11-23T04:56:21.176Z,5.90
2022-11-23T04:58:49.460Z,6.00
2022-11-23T05:01:17.827Z,5.90
2022-11-23T05:03:46.075Z,5.90
2022-11-23T05:06:14.629Z,6.00
2022-11-23T05:08:44.598Z,6.00
2022-11-23T05:11:14.043Z,6.00
2022-11-23T05:13:44.116Z,6.00
2022-11-23T05:16:12.299Z,6.00
2022-11-23T05:18:42.203Z,6.00
2022-11-23T05:21:12.011Z,6.00
2022-11-23T05:23:40.947Z,6.10
2022-11-23T05:26:09.280Z,6.10
2022-11-23T05:28:40.890Z,6.10
2022-11-23T05:31:12.287Z,6.10
2022-11-23T05:33:41.937Z,6.10
2022-11-23T05:36:13.876Z,6.10
2022-11-23T05:38:42.483Z,6.10
2022-11-23T05:41:11.396Z,6.10
2022-11-23T05:43:39.561Z,6.10
2022-11-23T05:46:08.515Z,6.10
2022-11-23T05:48:38.119Z,6.10
2022-11-23T05:51:06.327Z,6.10
2022-11-23T05:53:35.428Z,6.20
2022-11-23T05:56:04.168Z,6.10
2022-11-23T05:58:32.508Z,6.10
2022-11-23T06:01:03.090Z,6.10
2022-11-23T06:03:31.754Z,6.00
2022-11-23T06:06:01.689Z,6.10
2022-11-23T06:08:30.031Z,6.20
2022-11-23T06:10:58.212Z,6.10
2022-11-23T06:13:26.394Z,6.10
2022-11-23T06:15:56.957Z,6.10
2022-11-23T06:18:26.569Z,6.10
2022-11-23T06:20:55.447Z,6.10
2022-11-23T06:23:26.526Z,6.10
2022-11-23T06:25:55.412Z,6.10
2022-11-23T06:28:24.815Z,6.00
2022-11-23T06:30:53.108Z,6.00
2022-11-23T06:33:22.519Z,6.00
2022-11-23T06:35:55.105Z,6.00
2022-11-23T06:38:27.012Z,6.00
2022-11-23T06:40:59.652Z,6.00
2022-11-23T06:43:28.462Z,6.00
2022-11-23T06:45:57.257Z,6.10
2022-11-23T06:48:25.568Z,6.10
2022-11-23T06:50:54.696Z,6.10
2022-11-23T06:53:22.860Z,6.20
2022-11-23T06:55:52.511Z,6.10
2022-11-23T06:58:20.851Z,6.10
2022-11-23T07:00:49.108Z,6.10
2022-11-23T07:03:21.818Z,6.10
2022-11-23T07:05:51.933Z,6.10
2022-11-23T07:08:22.895Z,6.10
2022-11-23T07:10:53.124Z,6.00
2022-11-23T07:13:22.619Z,6.00
2022-11-23T07:15:52.238Z,6.10
2022-11-23T07:18:20.696Z,6.10
2022-11-23T07:20:50.436Z,6.10
2022-11-23T07:23:18.942Z,6.00
2022-11-23T07:25:48.859Z,6.10
2022-11-23T07:28:18.857Z,6.10
2022-11-23T07:30:47.568Z,6.10
2022-11-23T07:33:15.731Z,6.10
2022-11-23T07:35:44.115Z,6.10
2022-11-23T07:38:13.219Z,6.10
2022-11-23T07:40:41.498Z,6.20
2022-11-23T07:43:13.732Z,6.30
2022-11-23T07:45:44.023Z,6.20
2022-11-23T07:48:12.894Z,6.20
2022-11-23T07:50:41.313Z,6.20
2022-11-23T07:53:09.610Z,6.20
2022-11-23T07:55:40.169Z,6.30
2022-11-23T07:58:08.418Z,6.30
2022-11-23T08:00:36.707Z,6.30
2022-11-23T08:05:55.419Z,6.40
2022-11-23T08:08:24.084Z,6.30
2022-11-23T08:10:54.123Z,6.30
2022-11-23T08:13:23.772Z,6.30
2022-11-23T08:15:55.783Z,6.30
2022-11-23T08:18:25.859Z,6.30
2022-11-23T08:20:55.562Z,6.30
2022-11-23T08:23:25.694Z,6.40
2022-11-23T08:26:06.692Z,6.30
2022-11-23T08:28:39.899Z,6.30
2022-11-23T08:31:10.015Z,6.40
2022-11-23T08:33:40.771Z,6.40
2022-11-23T08:36:11.070Z,6.40
2022-11-23T08:38:39.213Z,6.40
2022-11-23T08:41:07.751Z,6.50
2022-11-23T08:43:36.104Z,6.40
2022-11-23T08:46:10.715Z,6.50
2022-11-23T08:48:41.024Z,6.40
2022-11-23T08:51:12.611Z,6.40
2022-11-23T08:53:41.209Z,6.50
2022-11-23T08:56:09.865Z,6.50
2022-11-23T08:58:38.033Z,6.50
2022-11-23T09:01:11.580Z,6.60
2022-11-23T09:03:43.070Z,6.50
2022-11-23T09:06:11.477Z,6.60
2022-11-23T09:08:41.970Z,6.60
2022-11-23T09:11:14.001Z,6.60
2022-11-23T09:13:46.779Z,6.60
2022-11-23T09:16:15.447Z,6.60
2022-11-23T09:18:47.394Z,6.70
2022-11-23T09:21:17.071Z,6.60
2022-11-23T09:23:45.274Z,6.70
2022-11-23T09:26:13.470Z,6.70
2022-11-23T09:28:45.012Z,6.70
2022-11-23T09:31:13.535Z,6.80
2022-11-23T09:33:42.191Z,6.90
2022-11-23T09:36:12.598Z,6.90
2022-11-23T09:38:57.423Z,6.90
2022-11-23T09:41:52.541Z,6.90
2022-11-23T09:44:37.937Z,7.00
2022-11-23T09:47:20.185Z,7.00
2022-11-23T09:50:06.829Z,7.00
2022-11-23T09:52:43.979Z,6.90
2022-11-23T09:55:22.308Z,6.90
2022-11-23T09:57:56.374Z,7.00
2022-11-23T10:00:25.950Z,7.10
2022-11-23T10:02:54.205Z,7.10
2022-11-23T10:05:24.890Z,7.10
2022-11-23T10:08:07.496Z,7.20
2022-11-23T10:10:43.909Z,7.30
2022-11-23T10:13:35.526Z,7.30
2022-11-23T10:16:19.302Z,7.30
2022-11-23T10:18:56.265Z,7.40
2022-11-23T10:21:34.540Z,7.40
2022-11-23T10:24:14.852Z,7.40
2022-11-23T10:26:45.913Z,7.40
2022-11-23T10:29:17.384Z,7.40
2022-11-23T10:31:55.523Z,7.50
2022-11-23T10:34:39.019Z,7.70
2022-11-23T10:37:13.036Z,7.80
2022-11-23T10:39:43.048Z,7.80
2022-11-23T10:42:21.669Z,8.00
2022-11-23T10:44:52.135Z,8.20
2022-11-23T10:47:41.646Z,8.20
2022-11-23T10:50:26.690Z,8.30
2022-11-23T10:52:57.396Z,8.20
2022-11-23T10:55:30.310Z,8.00
2022-11-23T10:57:59.489Z,7.90
2022-11-23T11:00:31.525Z,7.80
2022-11-23T11:03:03.553Z,7.80
2022-11-23T11:08:29.216Z,7.80
2022-11-23T11:11:05.814Z,7.80
2022-11-23T11:13:42.873Z,7.80
2022-11-23T11:16:21.950Z,7.90
2022-11-23T11:18:50.671Z,7.90
2022-11-23T11:21:23.689Z,7.80
2022-11-23T11:23:55.585Z,8.00
2022-11-23T11:26:28.697Z,8.10
2022-11-23T11:28:59.506Z,8.10
2022-11-23T11:31:50.491Z,8.20
2022-11-23T11:34:25.034Z,8.20
2022-11-23T11:37:01.095Z,8.20
2022-11-23T11:39:36.725Z,8.10
2022-11-23T11:42:17.925Z,8.20
2022-11-23T11:44:51.388Z,8.20
2022-11-23T11:47:29.364Z,8.20
2022-11-23T11:50:02.554Z,8.20
2022-11-23T11:52:37.588Z,8.10
2022-11-23T11:55:15.734Z,8.20
2022-11-23T11:57:50.195Z,8.30
2022-11-23T12:00:21.270Z,8.40
2022-11-23T12:03:02.158Z,8.50
2022-11-23T12:05:39.025Z,8.50
2022-11-23T12:08:13.921Z,8.40
2022-11-23T12:10:59.812Z,8.20
2022-11-23T12:13:33.174Z,8.20
2022-11-23T12:16:08.447Z,8.20
2022-11-23T12:19:06.510Z,8.10
2022-11-23T12:21:56.393Z,8.10
2022-11-23T12:24:34.480Z,8.10
2022-11-23T12:27:14.605Z,8.20
2022-11-23T12:30:02.842Z,8.30
2022-11-23T12:32:43.608Z,8.50
2022-11-23T12:35:34.932Z,8.60
2022-11-23T14:02:22.557Z,8.70
2022-11-23T14:04:52.169Z,8.60
2022-11-23T14:07:25.295Z,8.70
2022-11-23T14:09:58.996Z,8.70
2022-11-23T14:12:35.690Z,9.00
2022-11-23T14:15:13.402Z,9.00
2022-11-23T14:18:22.357Z,8.90
2022-11-23T14:21:12.621Z,9.00
2022-11-23T14:24:23.145Z,9.10
2022-11-23T14:27:17.759Z,8.80
2022-11-23T14:30:18.147Z,8.50
2022-11-23T14:33:11.768Z,8.40
2022-11-23T14:35:50.200Z,8.30
2022-11-23T14:38:57.476Z,8.10
2022-11-23T14:41:29.534Z,8.10
2022-11-23T14:44:01.543Z,7.90
2022-11-23T14:46:30.333Z,7.80
2022-11-23T14:49:05.778Z,7.90
2022-11-23T14:51:35.885Z,7.70
2022-11-23T14:54:12.753Z,7.70
2022-11-23T14:56:45.148Z,7.60
2022-11-23T14:59:22.317Z,7.60
2022-11-23T15:01:53.824Z,7.60
2022-11-23T15:04:28.947Z,7.50
2022-11-23T15:07:01.791Z,7.50
2022-11-23T15:09:45.881Z,7.40
2022-11-23T15:12:26.743Z,7.40
2022-11-23T15:14:57.447Z,7.30
2022-11-23T15:17:28.567Z,7.10
2022-11-23T15:19:58.293Z,6.90
2022-11-23T15:22:28.288Z,6.90
2022-11-23T15:25:08.404Z,6.90
2022-11-23T15:27:41.946Z,6.70
2022-11-23T15:30:18.179Z,6.80
2022-11-23T15:32:56.193Z,6.80
2022-11-23T15:35:32.460Z,6.70
2022-11-23T15:38:02.635Z,6.50
2022-11-23T15:40:36.418Z,6.50
2022-11-23T15:43:05.935Z,6.50
2022-11-23T15:45:39.302Z,6.40
2022-11-23T15:48:14.470Z,6.40
2022-11-23T15:50:49.345Z,6.00
2022-11-23T15:53:19.063Z,6.00
2022-11-23T15:55:51.023Z,6.10
2022-11-23T15:58:21.874Z,5.80
2022-11-23T16:00:54.379Z,5.70
2022-11-23T16:03:36.188Z,5.60
2022-11-23T16:06:18.660Z,5.70
2022-11-23T16:08:47.051Z,5.80
2022-11-23T16:11:30.794Z,5.80
2022-11-23T16:14:19.779Z,5.80
2022-11-23T16:16:49.633Z,5.80
2022-11-23T16:19:28.355Z,5.80
2022-11-23T16:22:02.748Z,5.80
2022-11-23T16:24:33.910Z,5.80
2022-11-23T16:27:14.104Z,5.80
2022-11-23T16:29:42.853Z,5.60
2022-11-23T16:32:25.252Z,5.50
2022-11-23T16:34:54.714Z,5.20
2022-11-23T16:37:25.663Z,5.20
2022-11-23T16:39:53.858Z,5.40
2022-11-23T16:42:27.105Z,5.40
2022-11-23T16:44:56.202Z,5.40
2022-11-23T16:47:26.392Z,5.30
2022-11-23T16:49:55.348Z,5.30
2022-11-23T16:52:24.558Z,5.40
2022-11-23T16:54:53.690Z,5.50
2022-11-23T16:57:29.955Z,5.50
2022-11-23T16:59:58.702Z,5.50
2022-11-23T17:02:27.053Z,5.50
2022-11-23T17:04:55.803Z,5.50
2022-11-23T17:07:24.979Z,5.50
2022-11-23T17:09:53.430Z,5.40
2022-11-23T17:12:22.479Z,5.40
2022-11-23T17:14:52.197Z,5.40
2022-11-23T17:17:22.287Z,5.40
2022-11-23T17:19:52.327Z,5.40
2022-11-23T17:22:21.274Z,5.40
2022-11-23T17:24:52.658Z,5.30
2022-11-23T17:27:24.295Z,5.20
2022-11-23T17:29:59.041Z,5.20
2022-11-23T17:32:27.936Z,5.10
2022-11-23T17:34:56.164Z,5.10
2022-11-23T17:37:25.799Z,5.10
2022-11-23T17:39:54.329Z,5.10
2022-11-23T17:42:22.751Z,5.00
2022-11-23T17:44:54.482Z,5.00
2022-11-23T17:47:25.772Z,4.90
2022-11-23T17:49:54.648Z,4.90
2022-11-23T17:52:23.519Z,4.80
2022-11-23T17:54:52.646Z,4.80
2022-11-23T17:57:24.332Z,4.90
2022-11-23T17:59:54.278Z,4.80
2022-11-23T18:02:22.781Z,4.80
2022-11-23T18:04:51.868Z,4.80
2022-11-23T18:07:22.307Z,4.80
2022-11-23T18:09:51.012Z,4.80
2022-11-23T18:12:19.492Z,4.70
2022-11-23T18:14:49.261Z,4.80
2022-11-23T18:17:22.208Z,4.70
2022-11-23T18:19:50.630Z,4.70
2022-11-23T18:22:18.852Z,4.70
2022-11-23T18:24:47.928Z,4.70
2022-11-23T18:27:16.665Z,4.60
2022-11-23T18:29:45.386Z,4.60
2022-11-23T18:32:13.601Z,4.60
2022-11-23T18:34:43.233Z,4.60
2022-11-23T18:37:11.506Z,4.60
2022-11-23T18:39:39.704Z,4.60
2022-11-23T18:42:07.984Z,4.60
2022-11-23T18:44:40.214Z,4.70
2022-11-23T18:47:09.370Z,4.80
2022-11-23T18:49:37.869Z,4.70
2022-11-23T18:52:09.141Z,4.80
2022-11-23T18:54:41.214Z,4.80
2022-11-23T18:57:11.991Z,4.70
2022-11-23T19:02:29.746Z,4.80
2022-11-23T19:04:58.132Z,4.80
2022-11-23T19:07:27.815Z,4.80
2022-11-23T19:09:57.292Z,4.90
2022-11-23T19:12:26.420Z,4.90
2022-11-23T19:14:55.028Z,4.80
2022-11-23T19:17:23.467Z,4.80
2022-11-23T19:19:51.754Z,4.80
2022-11-23T19:22:19.907Z,4.80
2022-11-23T19:24:49.584Z,4.80
2022-11-23T19:27:17.923Z,4.80
2022-11-23T19:29:47.640Z,4.80
2022-11-23T19:32:17.447Z,5.00
2022-11-23T19:34:48.186Z,4.90
2022-11-23T19:37:16.468Z,4.90
2022-11-23T19:39:46.854Z,4.90
2022-11-23T19:42:20.829Z,5.00
2022-11-23T19:44:49.536Z,5.00
2022-11-23T19:47:22.717Z,5.10
2022-11-23T19:49:51.449Z,5.20
2022-11-23T19:52:20.418Z,5.30
2022-11-23T19:54:48.565Z,5.50
2022-11-23T19:57:17.280Z,5.60
2022-11-23T19:59:48.816Z,5.80
2022-11-23T20:02:24.739Z,5.80
2022-11-23T20:04:57.070Z,5.60
2022-11-23T20:07:26.168Z,5.70
2022-11-23T20:09:55.142Z,5.90
2022-11-23T20:12:24.551Z,5.90
2022-11-23T20:14:55.993Z,5.90
2022-11-23T20:17:26.162Z,5.80
2022-11-23T20:19:56.192Z,5.70
2022-11-23T20:22:24.531Z,5.70
2022-11-23T20:24:53.681Z,5.80
2022-11-23T20:27:23.626Z,5.80
2022-11-23T20:29:51.865Z,5.80
2022-11-23T20:32:21.964Z,5.70
2022-11-23T20:34:50.090Z,5.80
2022-11-23T20:37:18.531Z,5.70
2022-11-23T20:39:46.773Z,5.70
2022-11-23T20:42:15.491Z,5.70
2022-11-23T20:44:45.906Z,5.60
2022-11-23T20:47:14.062Z,5.70
2022-11-23T20:49:43.918Z,5.60
2022-11-23T20:52:12.721Z,5.50
2022-11-23T20:54:44.245Z,5.50
2022-11-23T20:57:13.688Z,5.50
2022-11-23T20:59:42.091Z,5.50
2022-11-23T21:02:11.173Z,5.50
2022-11-23T21:04:39.601Z,5.50
2022-11-23T21:07:09.872Z,5.50
2022-11-23T21:09:38.774Z,5.50
2022-11-23T21:12:24.654Z,5.50
2022-11-23T21:14:56.418Z,5.50
2022-11-23T21:17:25.035Z,5.40
2022-11-23T21:19:54.398Z,5.40
2022-11-23T21:22:24.282Z,5.30
2022-11-23T21:24:54.855Z,5.30
2022-11-23T21:27:28.141Z,5.40
2022-11-23T21:29:56.636Z,5.30
2022-11-23T21:32:28.128Z,5.30
2022-11-23T21:34:57.788Z,5.20
2022-11-23T21:37:27.532Z,5.20
2022-11-23T21:39:55.687Z,5.20
2022-11-23T21:42:23.955Z,5.20
2022-11-23T21:44:52.425Z,5.20
2022-11-23T21:47:23.625Z,5.10
2022-11-23T21:49:52.645Z,5.10
2022-11-23T21:52:20.802Z,5.10
2022-11-23T21:54:50.374Z,5.00
2022-11-23T21:57:20.107Z,5.00
2022-11-23T21:59:48.284Z,4.90
2022-11-23T22:02:19.105Z,4.90
2022-11-23T22:04:49.646Z,4.90
2022-11-23T22:07:18.726Z,4.90
2022-11-23T22:09:47.622Z,4.90
2022-11-23T22:12:19.721Z,4.90
2022-11-23T22:14:50.145Z,4.90
2022-11-23T22:17:19.284Z,4.80
2022-11-23T22:19:48.565Z,4.90
2022-11-23T22:22:17.096Z,4.80
2022-11-23T22:24:46.298Z,4.80
2022-11-23T22:27:14.794Z,4.80
2022-11-23T22:29:44.595Z,4.80
2022-11-23T22:32:14.492Z,4.80
2022-11-23T22:34:43.792Z,4.80
2022-11-23T22:37:12.128Z,4.80
2022-11-23T22:39:40.610Z,4.80
2022-11-23T22:42:09.119Z,4.80
2022-11-23T22:44:39.480Z,4.70
2022-11-23T22:47:09.619Z,4.80
2022-11-23T22:49:40.754Z,4.80
2022-11-23T22:52:09.498Z,4.80
2022-11-23T22:54:39.678Z,4.80
2022-11-23T22:57:10.202Z,4.80
2022-11-23T22:59:38.716Z,4.80
2022-11-23T23:02:07.505Z,4.80
2022-11-23T23:04:39.294Z,4.80
2022-11-23T23:07:08.389Z,4.80
2022-11-23T23:09:37.333Z,4.80
2022-11-23T23:12:06.125Z,4.80
2022-11-23T23:14:35.576Z,4.80
2022-11-23T23:17:05.518Z,4.80
2022-11-23T23:19:35.620Z,4.80
2022-11-23T23:22:05.574Z,4.90
2022-11-23T23:24:34.249Z,4.90
2022-11-23T23:27:02.891Z,4.80
2022-11-23T23:29:31.288Z,4.90
2022-11-23T23:32:00.815Z,4.90
2022-11-23T23:34:29.566Z,4.90
2022-11-23T23:37:00.015Z,4.90
2022-11-23T23:39:29.913Z,4.90
2022-11-23T23:41:58.748Z,4.80
2022-11-23T23:44:27.119Z,4.80
2022-11-23T23:46:57.246Z,4.90
2022-11-23T23:49:26.398Z,4.90
2022-11-23T23:51:55.694Z,4.90
2022-11-23T23:54:25.485Z,4.90
2022-11-23T23:56:56.899Z,5.00
2022-11-23T23:59:27.511Z,5.00
